sensor_id;sensor_type;location;lat;lon;timestamp;pressure;altitude;pressure_sealevel;temperature;humidity
28648;BME280;17137;51.494;-0.262;2023-05-07T00:00:15;50226.57;;;-145.72;98.11
28648;BME280;17137;51.494;-0.262;2023-05-07T00:00:45;50228.54;;;-145.72;98.26
28648;BME280;17137;51.494;-0.262;2023-05-07T00:01:16;50236.19;;;-145.72;98.18
28648;BME280;17137;51.494;-0.262;2023-05-07T00:01:46;50220.29;;;-145.72;98.11
28648;BME280;17137;51.494;-0.262;2023-05-07T00:02:16;50226.45;;;-145.72;98.19
28648;BME280;17137;51.494;-0.262;2023-05-07T00:02:46;50223.49;;;-145.72;98.48
28648;BME280;17137;51.494;-0.262;2023-05-07T00:03:17;50229.53;;;-145.72;98.70
28648;BME280;17137;51.494;-0.262;2023-05-07T00:03:47;50230.39;;;-145.72;98.59
28648;BME280;17137;51.494;-0.262;2023-05-07T00:04:17;50227.31;;;-145.72;98.34
28648;BME280;17137;51.494;-0.262;2023-05-07T00:04:48;50221.40;;;-145.72;98.53
28648;BME280;17137;51.494;-0.262;2023-05-07T00:05:19;50218.07;;;-145.72;98.40
28648;BME280;17137;51.494;-0.262;2023-05-07T00:05:49;50229.53;;;-145.72;98.38
28648;BME280;17137;51.494;-0.262;2023-05-07T00:06:19;50222.01;;;-145.72;98.12
28648;BME280;17137;51.494;-0.262;2023-05-07T00:06:49;50219.79;;;-145.72;97.94
28648;BME280;17137;51.494;-0.262;2023-05-07T00:07:20;50216.10;;;-145.72;97.72
28648;BME280;17137;51.494;-0.262;2023-05-07T00:07:50;50209.69;;;-145.72;97.53
28648;BME280;17137;51.494;-0.262;2023-05-07T00:08:20;50218.31;;;-145.72;97.41
28648;BME280;17137;51.494;-0.262;2023-05-07T00:08:50;50215.60;;;-145.72;97.30
28648;BME280;17137;51.494;-0.262;2023-05-07T00:09:20;50212.15;;;-145.72;97.49
28648;BME280;17137;51.494;-0.262;2023-05-07T00:09:51;50205.62;;;-145.72;97.30
28648;BME280;17137;51.494;-0.262;2023-05-07T00:10:21;50220.16;;;-145.72;97.01
28648;BME280;17137;51.494;-0.262;2023-05-07T00:10:51;50223.98;;;-145.72;96.82
28648;BME280;17137;51.494;-0.262;2023-05-07T00:11:22;50204.51;;;-145.72;96.65
28648;BME280;17137;51.494;-0.262;2023-05-07T00:11:52;50220.16;;;-145.72;97.05
28648;BME280;17137;51.494;-0.262;2023-05-07T00:12:22;50215.48;;;-145.72;97.02
28648;BME280;17137;51.494;-0.262;2023-05-07T00:12:52;50209.69;;;-145.72;96.88
28648;BME280;17137;51.494;-0.262;2023-05-07T00:13:22;50218.07;;;-145.72;96.69
28648;BME280;17137;51.494;-0.262;2023-05-07T00:13:53;50209.81;;;-145.72;96.74
28648;BME280;17137;51.494;-0.262;2023-05-07T00:14:24;50219.79;;;-145.72;97.01
28648;BME280;17137;51.494;-0.262;2023-05-07T00:14:54;50232.49;;;-145.72;97.09
28648;BME280;17137;51.494;-0.262;2023-05-07T00:15:24;50226.94;;;-145.72;97.56
28648;BME280;17137;51.494;-0.262;2023-05-07T00:15:54;50223.74;;;-145.72;97.42
28648;BME280;17137;51.494;-0.262;2023-05-07T00:16:25;50221.64;;;-145.72;97.00
28648;BME280;17137;51.494;-0.262;2023-05-07T00:16:55;50217.08;;;-145.72;97.11
28648;BME280;17137;51.494;-0.262;2023-05-07T00:17:25;50223.12;;;-145.72;97.10
28648;BME280;17137;51.494;-0.262;2023-05-07T00:17:56;50228.91;;;-145.72;97.24
28648;BME280;17137;51.494;-0.262;2023-05-07T00:18:26;50220.66;;;-145.72;97.53
28648;BME280;17137;51.494;-0.262;2023-05-07T00:18:56;50224.72;;;-145.72;97.65
28648;BME280;17137;51.494;-0.262;2023-05-07T00:19:26;50215.97;;;-145.72;97.54
28648;BME280;17137;51.494;-0.262;2023-05-07T00:19:57;50223.74;;;-145.72;96.99
28648;BME280;17137;51.494;-0.262;2023-05-07T00:20:27;50229.90;;;-145.72;97.30
28648;BME280;17137;51.494;-0.262;2023-05-07T00:20:57;50225.22;;;-145.72;97.37
28648;BME280;17137;51.494;-0.262;2023-05-07T00:21:28;50217.45;;;-145.72;97.18
28648;BME280;17137;51.494;-0.262;2023-05-07T00:21:58;50228.79;;;-145.72;97.19
28648;BME280;17137;51.494;-0.262;2023-05-07T00:22:28;50222.63;;;-145.72;97.18
28648;BME280;17137;51.494;-0.262;2023-05-07T00:22:58;50229.65;;;-145.72;97.25
28648;BME280;17137;51.494;-0.262;2023-05-07T00:23:29;50228.67;;;-145.72;97.38
28648;BME280;17137;51.494;-0.262;2023-05-07T00:23:59;50225.71;;;-145.72;97.46
28648;BME280;17137;51.494;-0.262;2023-05-07T00:24:29;50236.31;;;-145.72;97.48
28648;BME280;17137;51.494;-0.262;2023-05-07T00:24:59;50220.78;;;-145.72;97.53
28648;BME280;17137;51.494;-0.262;2023-05-07T00:25:29;50237.91;;;-145.72;97.89
28648;BME280;17137;51.494;-0.262;2023-05-07T00:26:00;50228.79;;;-145.72;98.13
28648;BME280;17137;51.494;-0.262;2023-05-07T00:26:30;50236.68;;;-145.72;98.64
28648;BME280;17137;51.494;-0.262;2023-05-07T00:27:00;50237.42;;;-145.72;98.67
28648;BME280;17137;51.494;-0.262;2023-05-07T00:27:59;50235.20;;;-145.72;98.46
28648;BME280;17137;51.494;-0.262;2023-05-07T00:28:30;50219.30;;;-145.72;98.20
28648;BME280;17137;51.494;-0.262;2023-05-07T00:29:00;50224.97;;;-145.72;97.93
28648;BME280;17137;51.494;-0.262;2023-05-07T00:29:30;50225.96;;;-145.72;97.81
28648;BME280;17137;51.494;-0.262;2023-05-07T00:30:00;50240.50;;;-145.72;97.75
28648;BME280;17137;51.494;-0.262;2023-05-07T00:30:31;50232.24;;;-145.72;98.10
28648;BME280;17137;51.494;-0.262;2023-05-07T00:31:02;50228.91;;;-145.72;98.03
28648;BME280;17137;51.494;-0.262;2023-05-07T00:31:32;50229.16;;;-145.72;97.97
28648;BME280;17137;51.494;-0.262;2023-05-07T00:32:02;50236.56;;;-145.72;97.89
28648;BME280;17137;51.494;-0.262;2023-05-07T00:32:32;50233.48;;;-145.72;98.07
28648;BME280;17137;51.494;-0.262;2023-05-07T00:33:02;50255.05;;;-145.72;99.23
28648;BME280;17137;51.494;-0.262;2023-05-07T00:33:38;50256.77;;;-145.72;99.80
28648;BME280;17137;51.494;-0.262;2023-05-07T00:34:08;50247.16;;;-145.72;99.56
28648;BME280;17137;51.494;-0.262;2023-05-07T00:34:38;50239.39;;;-145.72;99.52
28648;BME280;17137;51.494;-0.262;2023-05-07T00:35:09;50245.68;;;-145.72;99.37
28648;BME280;17137;51.494;-0.262;2023-05-07T00:35:39;50239.52;;;-145.72;99.13
28648;BME280;17137;51.494;-0.262;2023-05-07T00:36:09;50234.46;;;-145.72;99.05
28648;BME280;17137;51.494;-0.262;2023-05-07T00:36:40;50239.02;;;-145.72;99.00
28648;BME280;17137;51.494;-0.262;2023-05-07T00:37:10;50238.28;;;-145.72;98.94
28648;BME280;17137;51.494;-0.262;2023-05-07T00:37:40;50239.39;;;-145.72;98.86
28648;BME280;17137;51.494;-0.262;2023-05-07T00:38:10;50233.72;;;-145.72;98.77
28648;BME280;17137;51.494;-0.262;2023-05-07T00:38:40;50248.88;;;-145.72;98.79
28648;BME280;17137;51.494;-0.262;2023-05-07T00:39:11;50243.46;;;-145.72;98.86
28648;BME280;17137;51.494;-0.262;2023-05-07T00:39:41;50233.60;;;-145.72;98.86
28648;BME280;17137;51.494;-0.262;2023-05-07T00:40:12;50240.13;;;-145.72;98.79
28648;BME280;17137;51.494;-0.262;2023-05-07T00:40:42;50244.08;;;-145.72;98.90
28648;BME280;17137;51.494;-0.262;2023-05-07T00:41:12;50240.38;;;-145.72;98.71
28648;BME280;17137;51.494;-0.262;2023-05-07T00:41:42;50239.15;;;-145.72;98.55
28648;BME280;17137;51.494;-0.262;2023-05-07T00:42:12;50232.98;;;-145.72;98.42
28648;BME280;17137;51.494;-0.262;2023-05-07T00:42:43;50237.42;;;-145.72;98.68
28648;BME280;17137;51.494;-0.262;2023-05-07T00:43:13;50244.08;;;-145.72;99.05
28648;BME280;17137;51.494;-0.262;2023-05-07T00:43:44;50243.09;;;-145.72;98.91
28648;BME280;17137;51.494;-0.262;2023-05-07T00:44:14;50245.31;;;-145.72;98.69
28648;BME280;17137;51.494;-0.262;2023-05-07T00:44:44;50232.86;;;-145.72;98.78
28648;BME280;17137;51.494;-0.262;2023-05-07T00:45:15;50241.36;;;-145.72;98.83
28648;BME280;17137;51.494;-0.262;2023-05-07T00:45:46;50235.20;;;-145.72;98.76
28648;BME280;17137;51.494;-0.262;2023-05-07T00:46:16;50248.39;;;-145.72;98.83
28648;BME280;17137;51.494;-0.262;2023-05-07T00:46:47;50245.56;;;-145.72;99.02
28648;BME280;17137;51.494;-0.262;2023-05-07T00:47:17;50239.39;;;-145.72;99.03
28648;BME280;17137;51.494;-0.262;2023-05-07T00:47:47;50247.65;;;-145.72;98.93
28648;BME280;17137;51.494;-0.262;2023-05-07T00:48:18;50232.37;;;-145.72;98.88
28648;BME280;17137;51.494;-0.262;2023-05-07T00:48:49;50249.62;;;-145.72;98.86
28648;BME280;17137;51.494;-0.262;2023-05-07T00:49:20;50237.17;;;-145.72;98.91
28648;BME280;17137;51.494;-0.262;2023-05-07T00:49:51;50249.75;;;-145.72;98.80
28648;BME280;17137;51.494;-0.262;2023-05-07T00:50:21;50231.13;;;-145.72;98.63
28648;BME280;17137;51.494;-0.262;2023-05-07T00:50:52;50238.04;;;-145.72;98.69
28648;BME280;17137;51.494;-0.262;2023-05-07T00:51:23;50236.56;;;-145.72;98.70
28648;BME280;17137;51.494;-0.262;2023-05-07T00:51:55;50239.89;;;-145.72;98.63
28648;BME280;17137;51.494;-0.262;2023-05-07T00:52:26;50241.49;;;-145.72;98.68
28648;BME280;17137;51.494;-0.262;2023-05-07T00:52:56;50238.53;;;-145.72;98.58
28648;BME280;17137;51.494;-0.262;2023-05-07T00:53:27;50229.78;;;-145.72;98.53
28648;BME280;17137;51.494;-0.262;2023-05-07T00:53:57;50235.94;;;-145.72;98.66
28648;BME280;17137;51.494;-0.262;2023-05-07T00:54:27;50241.61;;;-145.72;99.16
28648;BME280;17137;51.494;-0.262;2023-05-07T00:54:59;50232.74;;;-145.72;99.07
28648;BME280;17137;51.494;-0.262;2023-05-07T00:55:31;50246.17;;;-145.72;99.56
28648;BME280;17137;51.494;-0.262;2023-05-07T00:56:01;50242.60;;;-145.72;99.34
28648;BME280;17137;51.494;-0.262;2023-05-07T00:56:32;50237.42;;;-145.72;99.09
28648;BME280;17137;51.494;-0.262;2023-05-07T00:57:03;50247.28;;;-145.72;99.11
28648;BME280;17137;51.494;-0.262;2023-05-07T00:57:36;50241.98;;;-145.72;98.91
28648;BME280;17137;51.494;-0.262;2023-05-07T00:58:07;50244.08;;;-145.72;99.00
28648;BME280;17137;51.494;-0.262;2023-05-07T00:58:37;50246.67;;;-145.72;98.83
28648;BME280;17137;51.494;-0.262;2023-05-07T00:59:08;50234.22;;;-145.72;98.74
28648;BME280;17137;51.494;-0.262;2023-05-07T00:59:39;50244.82;;;-145.72;98.75
28648;BME280;17137;51.494;-0.262;2023-05-07T01:00:10;50236.93;;;-145.72;98.89
28648;BME280;17137;51.494;-0.262;2023-05-07T01:00:40;50241.36;;;-145.72;98.78
28648;BME280;17137;51.494;-0.262;2023-05-07T01:01:11;50258.99;;;-145.72;98.95
28648;BME280;17137;51.494;-0.262;2023-05-07T01:01:41;50244.08;;;-145.72;99.38
28648;BME280;17137;51.494;-0.262;2023-05-07T01:02:11;50247.16;;;-145.72;99.41
28648;BME280;17137;51.494;-0.262;2023-05-07T01:02:42;50252.46;;;-145.72;99.23
28648;BME280;17137;51.494;-0.262;2023-05-07T01:03:12;50242.72;;;-145.72;98.81
28648;BME280;17137;51.494;-0.262;2023-05-07T01:03:43;50250.24;;;-145.72;99.04
28648;BME280;17137;51.494;-0.262;2023-05-07T01:04:13;50247.28;;;-145.72;98.96
28648;BME280;17137;51.494;-0.262;2023-05-07T01:04:44;50259.85;;;-145.72;99.33
28648;BME280;17137;51.494;-0.262;2023-05-07T01:05:16;50253.57;;;-145.72;98.96
28648;BME280;17137;51.494;-0.262;2023-05-07T01:05:48;50249.75;;;-145.72;98.81
28648;BME280;17137;51.494;-0.262;2023-05-07T01:06:20;50240.38;;;-145.72;98.56
28648;BME280;17137;51.494;-0.262;2023-05-07T01:06:52;50243.58;;;-145.72;98.41
28648;BME280;17137;51.494;-0.262;2023-05-07T01:07:23;50245.43;;;-145.72;98.44
28648;BME280;17137;51.494;-0.262;2023-05-07T01:07:54;50250.98;;;-145.72;98.54
28648;BME280;17137;51.494;-0.262;2023-05-07T01:08:25;50249.01;;;-145.72;99.02
28648;BME280;17137;51.494;-0.262;2023-05-07T01:08:56;50249.99;;;-145.72;98.95
28648;BME280;17137;51.494;-0.262;2023-05-07T01:09:27;50251.35;;;-145.72;98.88
28648;BME280;17137;51.494;-0.262;2023-05-07T01:09:58;50261.95;;;-145.72;98.94
28648;BME280;17137;51.494;-0.262;2023-05-07T01:10:28;50248.51;;;-145.72;98.87
28648;BME280;17137;51.494;-0.262;2023-05-07T01:10:59;50251.72;;;-145.72;98.79
28648;BME280;17137;51.494;-0.262;2023-05-07T01:11:30;50239.39;;;-145.72;99.43
28648;BME280;17137;51.494;-0.262;2023-05-07T01:12:01;50261.21;;;-145.72;99.47
28648;BME280;17137;51.494;-0.262;2023-05-07T01:12:31;50251.23;;;-145.72;99.54
28648;BME280;17137;51.494;-0.262;2023-05-07T01:13:03;50237.79;;;-145.72;98.86
28648;BME280;17137;51.494;-0.262;2023-05-07T01:13:34;50254.80;;;-145.72;98.68
28648;BME280;17137;51.494;-0.262;2023-05-07T01:14:05;50243.09;;;-145.72;98.46
28648;BME280;17137;51.494;-0.262;2023-05-07T01:14:37;50248.51;;;-145.72;98.75
28648;BME280;17137;51.494;-0.262;2023-05-07T01:15:08;50247.16;;;-145.72;98.83
28648;BME280;17137;51.494;-0.262;2023-05-07T01:15:39;50250.24;;;-145.72;98.91
28648;BME280;17137;51.494;-0.262;2023-05-07T01:16:39;50249.75;;;-145.72;99.31
28648;BME280;17137;51.494;-0.262;2023-05-07T01:17:09;50253.32;;;-145.72;99.59
28648;BME280;17137;51.494;-0.262;2023-05-07T01:17:41;50256.53;;;-145.72;99.99
28648;BME280;17137;51.494;-0.262;2023-05-07T01:18:11;50258.99;;;-145.72;100.00
28648;BME280;17137;51.494;-0.262;2023-05-07T01:18:42;50262.20;;;-145.72;100.00
28648;BME280;17137;51.494;-0.262;2023-05-07T01:19:12;50273.29;;;-145.72;100.00
28648;BME280;17137;51.494;-0.262;2023-05-07T01:19:44;50256.53;;;-145.72;100.00
28648;BME280;17137;51.494;-0.262;2023-05-07T01:20:15;50263.55;;;-145.72;100.00
28648;BME280;17137;51.494;-0.262;2023-05-07T01:20:45;50258.87;;;-145.72;100.00
28648;BME280;17137;51.494;-0.262;2023-05-07T01:21:16;50277.73;;;-145.72;100.00
28648;BME280;17137;51.494;-0.262;2023-05-07T01:21:48;50275.88;;;-145.72;100.00
28648;BME280;17137;51.494;-0.262;2023-05-07T01:22:28;50263.31;;;-145.72;100.00
28648;BME280;17137;51.494;-0.262;2023-05-07T01:23:00;50260.35;;;-145.72;100.00
28648;BME280;17137;51.494;-0.262;2023-05-07T01:23:31;50253.20;;;-145.72;100.00
28648;BME280;17137;51.494;-0.262;2023-05-07T01:24:03;50260.84;;;-145.72;100.00
28648;BME280;17137;51.494;-0.262;2023-05-07T01:24:35;50263.31;;;-145.72;100.00
28648;BME280;17137;51.494;-0.262;2023-05-07T01:25:07;50269.22;;;-145.72;100.00
28648;BME280;17137;51.494;-0.262;2023-05-07T01:25:38;50266.26;;;-145.72;100.00
28648;BME280;17137;51.494;-0.262;2023-05-07T01:26:08;50284.02;;;-145.72;100.00
28648;BME280;17137;51.494;-0.262;2023-05-07T01:26:38;50283.89;;;-145.72;100.00
28648;BME280;17137;51.494;-0.262;2023-05-07T01:27:09;50278.71;;;-145.72;100.00
28648;BME280;17137;51.494;-0.262;2023-05-07T01:27:39;50268.61;;;-145.72;100.00
28648;BME280;17137;51.494;-0.262;2023-05-07T01:28:09;50270.21;;;-145.72;100.00
28648;BME280;17137;51.494;-0.262;2023-05-07T01:28:39;50268.11;;;-145.72;100.00
28648;BME280;17137;51.494;-0.262;2023-05-07T01:29:10;50266.39;;;-145.72;100.00
28648;BME280;17137;51.494;-0.262;2023-05-07T01:29:41;50261.33;;;-145.72;100.00
28648;BME280;17137;51.494;-0.262;2023-05-07T01:30:12;50265.28;;;-145.72;100.00
28648;BME280;17137;51.494;-0.262;2023-05-07T01:30:46;50263.55;;;-145.72;100.00
28648;BME280;17137;51.494;-0.262;2023-05-07T01:31:18;50267.74;;;-145.72;100.00
28648;BME280;17137;51.494;-0.262;2023-05-07T01:31:50;50257.88;;;-145.72;100.00
28648;BME280;17137;51.494;-0.262;2023-05-07T01:32:28;50261.09;;;-145.72;100.00
28648;BME280;17137;51.494;-0.262;2023-05-07T01:33:03;50266.51;;;-145.72;100.00
28648;BME280;17137;51.494;-0.262;2023-05-07T01:33:35;50280.44;;;-145.72;100.00
28648;BME280;17137;51.494;-0.262;2023-05-07T01:34:08;50273.91;;;-145.72;100.00
28648;BME280;17137;51.494;-0.262;2023-05-07T01:34:40;50282.17;;;-145.72;100.00
28648;BME280;17137;51.494;-0.262;2023-05-07T01:35:14;50266.26;;;-145.72;100.00
28648;BME280;17137;51.494;-0.262;2023-05-07T01:35:48;50274.77;;;-145.72;100.00
28648;BME280;17137;51.494;-0.262;2023-05-07T01:36:20;50264.54;;;-145.72;100.00
28648;BME280;17137;51.494;-0.262;2023-05-07T01:36:53;50273.29;;;-145.72;100.00
28648;BME280;17137;51.494;-0.262;2023-05-07T01:37:25;50264.17;;;-145.72;100.00
28648;BME280;17137;51.494;-0.262;2023-05-07T01:37:56;50261.70;;;-145.72;100.00
28648;BME280;17137;51.494;-0.262;2023-05-07T01:38:27;50272.80;;;-145.72;100.00
28648;BME280;17137;51.494;-0.262;2023-05-07T01:38:59;50266.39;;;-145.72;100.00
28648;BME280;17137;51.494;-0.262;2023-05-07T01:39:30;50262.57;;;-145.72;100.00
28648;BME280;17137;51.494;-0.262;2023-05-07T01:40:01;50266.63;;;-145.72;100.00
28648;BME280;17137;51.494;-0.262;2023-05-07T01:40:32;50260.35;;;-145.72;100.00
28648;BME280;17137;51.494;-0.262;2023-05-07T01:41:03;50266.14;;;-145.72;100.00
28648;BME280;17137;51.494;-0.262;2023-05-07T01:41:34;50262.69;;;-145.72;100.00
28648;BME280;17137;51.494;-0.262;2023-05-07T01:42:05;50274.65;;;-145.72;100.00
28648;BME280;17137;51.494;-0.262;2023-05-07T01:42:36;50255.79;;;-145.72;99.89
28648;BME280;17137;51.494;-0.262;2023-05-07T01:43:07;50253.94;;;-145.72;100.00
28648;BME280;17137;51.494;-0.262;2023-05-07T01:43:38;50279.82;;;-145.72;100.00
28648;BME280;17137;51.494;-0.262;2023-05-07T01:44:12;50282.17;;;-145.72;100.00
28648;BME280;17137;51.494;-0.262;2023-05-07T01:44:43;50272.06;;;-145.72;100.00
28648;BME280;17137;51.494;-0.262;2023-05-07T01:45:14;50269.22;;;-145.72;100.00
28648;BME280;17137;51.494;-0.262;2023-05-07T01:45:45;50271.69;;;-145.72;100.00
28648;BME280;17137;51.494;-0.262;2023-05-07T01:46:16;50268.61;;;-145.72;100.00
28648;BME280;17137;51.494;-0.262;2023-05-07T01:46:53;50273.66;;;-145.72;100.00
28648;BME280;17137;51.494;-0.262;2023-05-07T01:47:24;50270.58;;;-145.72;100.00
28648;BME280;17137;51.494;-0.262;2023-05-07T01:47:55;50262.69;;;-145.72;100.00
28648;BME280;17137;51.494;-0.262;2023-05-07T01:48:26;50265.65;;;-145.72;100.00
28648;BME280;17137;51.494;-0.262;2023-05-07T01:48:57;50265.53;;;-145.72;100.00
28648;BME280;17137;51.494;-0.262;2023-05-07T01:49:27;50270.70;;;-145.72;100.00
28648;BME280;17137;51.494;-0.262;2023-05-07T01:49:58;50267.62;;;-145.72;100.00
28648;BME280;17137;51.494;-0.262;2023-05-07T01:50:28;50271.94;;;-145.72;100.00
28648;BME280;17137;51.494;-0.262;2023-05-07T01:51:00;50274.40;;;-145.72;100.00
28648;BME280;17137;51.494;-0.262;2023-05-07T01:51:31;50259.98;;;-145.72;100.00
28648;BME280;17137;51.494;-0.262;2023-05-07T01:52:03;50267.62;;;-145.72;99.97
28648;BME280;17137;51.494;-0.262;2023-05-07T01:52:35;50260.84;;;-145.72;99.86
28648;BME280;17137;51.494;-0.262;2023-05-07T01:53:06;50259.98;;;-145.72;99.78
28648;BME280;17137;51.494;-0.262;2023-05-07T01:53:37;50266.51;;;-145.72;99.76
28648;BME280;17137;51.494;-0.262;2023-05-07T01:54:07;50272.92;;;-145.72;100.00
28648;BME280;17137;51.494;-0.262;2023-05-07T01:54:38;50267.87;;;-145.72;100.00
28648;BME280;17137;51.494;-0.262;2023-05-07T01:55:09;50272.43;;;-145.72;100.00
28648;BME280;17137;51.494;-0.262;2023-05-07T01:55:39;50277.11;;;-145.72;100.00
28648;BME280;17137;51.494;-0.262;2023-05-07T01:56:09;50275.63;;;-145.72;100.00
28648;BME280;17137;51.494;-0.262;2023-05-07T01:56:40;50269.96;;;-145.72;100.00
28648;BME280;17137;51.494;-0.262;2023-05-07T01:57:10;50269.10;;;-145.72;100.00
28648;BME280;17137;51.494;-0.262;2023-05-07T01:57:41;50276.50;;;-145.72;100.00
28648;BME280;17137;51.494;-0.262;2023-05-07T01:58:11;50274.65;;;-145.72;100.00
28648;BME280;17137;51.494;-0.262;2023-05-07T01:58:42;50258.13;;;-145.72;100.00
28648;BME280;17137;51.494;-0.262;2023-05-07T01:59:12;50273.78;;;-145.72;100.00
28648;BME280;17137;51.494;-0.262;2023-05-07T01:59:42;50261.21;;;-145.72;100.00
28648;BME280;17137;51.494;-0.262;2023-05-07T02:00:13;50268.73;;;-145.72;100.00
28648;BME280;17137;51.494;-0.262;2023-05-07T02:00:44;50275.02;;;-145.72;100.00
28648;BME280;17137;51.494;-0.262;2023-05-07T02:01:14;50262.81;;;-145.72;100.00
28648;BME280;17137;51.494;-0.262;2023-05-07T02:01:45;50259.85;;;-145.72;100.00
28648;BME280;17137;51.494;-0.262;2023-05-07T02:02:15;50268.73;;;-145.72;100.00
28648;BME280;17137;51.494;-0.262;2023-05-07T02:02:45;50271.32;;;-145.72;100.00
28648;BME280;17137;51.494;-0.262;2023-05-07T02:03:16;50273.54;;;-145.72;100.00
28648;BME280;17137;51.494;-0.262;2023-05-07T02:03:46;50256.40;;;-145.72;100.00
28648;BME280;17137;51.494;-0.262;2023-05-07T02:04:21;50275.14;;;-145.72;100.00
28648;BME280;17137;51.494;-0.262;2023-05-07T02:04:51;50271.94;;;-145.72;100.00
28648;BME280;17137;51.494;-0.262;2023-05-07T02:05:22;50268.48;;;-145.72;100.00
28648;BME280;17137;51.494;-0.262;2023-05-07T02:05:53;50267.87;;;-145.72;100.00
28648;BME280;17137;51.494;-0.262;2023-05-07T02:06:23;50275.14;;;-145.72;100.00
28648;BME280;17137;51.494;-0.262;2023-05-07T02:06:53;50272.18;;;-145.72;100.00
28648;BME280;17137;51.494;-0.262;2023-05-07T02:07:23;50265.03;;;-145.72;100.00
28648;BME280;17137;51.494;-0.262;2023-05-07T02:07:54;50267.00;;;-145.72;100.00
28648;BME280;17137;51.494;-0.262;2023-05-07T02:08:24;50260.35;;;-145.72;100.00
28648;BME280;17137;51.494;-0.262;2023-05-07T02:08:54;50266.14;;;-145.72;100.00
28648;BME280;17137;51.494;-0.262;2023-05-07T02:09:25;50268.24;;;-145.72;100.00
28648;BME280;17137;51.494;-0.262;2023-05-07T02:09:55;50257.27;;;-145.72;100.00
28648;BME280;17137;51.494;-0.262;2023-05-07T02:10:26;50273.54;;;-145.72;100.00
28648;BME280;17137;51.494;-0.262;2023-05-07T02:10:56;50261.09;;;-145.72;100.00
28648;BME280;17137;51.494;-0.262;2023-05-07T02:11:27;50269.10;;;-145.72;100.00
28648;BME280;17137;51.494;-0.262;2023-05-07T02:11:57;50268.24;;;-145.72;100.00
28648;BME280;17137;51.494;-0.262;2023-05-07T02:12:27;50264.17;;;-145.72;100.00
28648;BME280;17137;51.494;-0.262;2023-05-07T02:12:57;50265.16;;;-145.72;100.00
28648;BME280;17137;51.494;-0.262;2023-05-07T02:13:29;50274.03;;;-145.72;100.00
28648;BME280;17137;51.494;-0.262;2023-05-07T02:14:00;50271.20;;;-145.72;100.00
28648;BME280;17137;51.494;-0.262;2023-05-07T02:14:30;50264.05;;;-145.72;100.00
28648;BME280;17137;51.494;-0.262;2023-05-07T02:15:01;50263.68;;;-145.72;100.00
28648;BME280;17137;51.494;-0.262;2023-05-07T02:15:31;50271.69;;;-145.72;100.00
28648;BME280;17137;51.494;-0.262;2023-05-07T02:16:01;50257.02;;;-145.72;100.00
28648;BME280;17137;51.494;-0.262;2023-05-07T02:16:32;50274.65;;;-145.72;100.00
28648;BME280;17137;51.494;-0.262;2023-05-07T02:17:02;50266.02;;;-145.72;99.92
28648;BME280;17137;51.494;-0.262;2023-05-07T02:17:32;50270.83;;;-145.72;100.00
28648;BME280;17137;51.494;-0.262;2023-05-07T02:18:04;50278.84;;;-145.72;100.00
28648;BME280;17137;51.494;-0.262;2023-05-07T02:18:34;50269.10;;;-145.72;100.00
28648;BME280;17137;51.494;-0.262;2023-05-07T02:19:05;50268.11;;;-145.72;100.00
28648;BME280;17137;51.494;-0.262;2023-05-07T02:19:36;50270.21;;;-145.72;100.00
28648;BME280;17137;51.494;-0.262;2023-05-07T02:20:07;50265.28;;;-145.72;100.00
28648;BME280;17137;51.494;-0.262;2023-05-07T02:20:38;50272.30;;;-145.72;100.00
28648;BME280;17137;51.494;-0.262;2023-05-07T02:21:08;50283.28;;;-145.72;100.00
28648;BME280;17137;51.494;-0.262;2023-05-07T02:21:38;50270.33;;;-145.72;100.00
28648;BME280;17137;51.494;-0.262;2023-05-07T02:22:09;50266.26;;;-145.72;100.00
28648;BME280;17137;51.494;-0.262;2023-05-07T02:22:40;50275.63;;;-145.72;100.00
28648;BME280;17137;51.494;-0.262;2023-05-07T02:23:10;50266.39;;;-145.72;100.00
28648;BME280;17137;51.494;-0.262;2023-05-07T02:23:40;50282.78;;;-145.72;100.00
28648;BME280;17137;51.494;-0.262;2023-05-07T02:24:11;50274.65;;;-145.72;100.00
28648;BME280;17137;51.494;-0.262;2023-05-07T02:24:41;50264.17;;;-145.72;100.00
28648;BME280;17137;51.494;-0.262;2023-05-07T02:25:11;50288.82;;;-145.72;100.00
28648;BME280;17137;51.494;-0.262;2023-05-07T02:25:42;50273.04;;;-145.72;100.00
28648;BME280;17137;51.494;-0.262;2023-05-07T02:26:12;50273.04;;;-145.72;100.00
28648;BME280;17137;51.494;-0.262;2023-05-07T02:26:42;50260.72;;;-145.72;100.00
28648;BME280;17137;51.494;-0.262;2023-05-07T02:27:13;50277.36;;;-145.72;100.00
28648;BME280;17137;51.494;-0.262;2023-05-07T02:27:43;50270.21;;;-145.72;100.00
28648;BME280;17137;51.494;-0.262;2023-05-07T02:28:14;50278.35;;;-145.72;100.00
28648;BME280;17137;51.494;-0.262;2023-05-07T02:28:44;50283.03;;;-145.72;100.00
28648;BME280;17137;51.494;-0.262;2023-05-07T02:29:15;50279.95;;;-145.72;100.00
28648;BME280;17137;51.494;-0.262;2023-05-07T02:29:46;50286.85;;;-145.72;100.00
28648;BME280;17137;51.494;-0.262;2023-05-07T02:30:17;50271.07;;;-145.72;100.00
28648;BME280;17137;51.494;-0.262;2023-05-07T02:30:47;50261.33;;;-145.72;100.00
28648;BME280;17137;51.494;-0.262;2023-05-07T02:31:17;50285.86;;;-145.72;100.00
28648;BME280;17137;51.494;-0.262;2023-05-07T02:31:48;50270.21;;;-145.72;100.00
28648;BME280;17137;51.494;-0.262;2023-05-07T02:32:18;50285.00;;;-145.72;100.00
28648;BME280;17137;51.494;-0.262;2023-05-07T02:32:48;50285.99;;;-145.72;100.00
28648;BME280;17137;51.494;-0.262;2023-05-07T02:33:18;50269.59;;;-145.72;100.00
28648;BME280;17137;51.494;-0.262;2023-05-07T02:33:48;50280.69;;;-145.72;100.00
28648;BME280;17137;51.494;-0.262;2023-05-07T02:34:19;50272.92;;;-145.72;100.00
28648;BME280;17137;51.494;-0.262;2023-05-07T02:34:50;50276.00;;;-145.72;100.00
28648;BME280;17137;51.494;-0.262;2023-05-07T02:35:20;50278.35;;;-145.72;100.00
28648;BME280;17137;51.494;-0.262;2023-05-07T02:35:51;50273.54;;;-145.72;100.00
28648;BME280;17137;51.494;-0.262;2023-05-07T02:36:21;50275.51;;;-145.72;100.00
28648;BME280;17137;51.494;-0.262;2023-05-07T02:36:51;50273.91;;;-145.72;100.00